sensor_id;sensor_type;location;lat;lon;timestamp;temperature;humidity
30628;DHT22;17394;50.890;4.724;2023-07-13T00:02:17;16.20;99.90
30628;DHT22;17394;50.890;4.724;2023-07-13T00:04:43;16.10;99.90
30628;DHT22;17394;50.890;4.724;2023-07-13T00:07:09;16.10;99.90
30628;DHT22;17394;50.890;4.724;2023-07-13T00:09:35;16.00;99.90
30628;DHT22;17394;50.890;4.724;2023-07-13T00:12:01;16.00;99.90
30628;DHT22;17394;50.890;4.724;2023-07-13T00:14:28;16.00;99.90
30628;DHT22;17394;50.890;4.724;2023-07-13T00:16:54;16.00;99.90
30628;DHT22;17394;50.890;4.724;2023-07-13T00:19:20;16.00;99.90
30628;DHT22;17394;50.890;4.724;2023-07-13T00:21:45;15.90;99.90
30628;DHT22;17394;50.890;4.724;2023-07-13T00:24:12;15.90;99.90
30628;DHT22;17394;50.890;4.724;2023-07-13T00:26:39;15.90;99.90
30628;DHT22;17394;50.890;4.724;2023-07-13T00:29:04;15.90;99.90
30628;DHT22;17394;50.890;4.724;2023-07-13T00:31:33;15.90;99.90
30628;DHT22;17394;50.890;4.724;2023-07-13T00:33:59;15.90;99.90
30628;DHT22;17394;50.890;4.724;2023-07-13T00:36:25;15.80;99.90
30628;DHT22;17394;50.890;4.724;2023-07-13T00:38:51;15.90;99.90
30628;DHT22;17394;50.890;4.724;2023-07-13T00:41:18;15.80;99.90
30628;DHT22;17394;50.890;4.724;2023-07-13T00:43:43;15.80;99.90
30628;DHT22;17394;50.890;4.724;2023-07-13T00:46:20;15.80;99.90
30628;DHT22;17394;50.890;4.724;2023-07-13T00:48:47;15.70;99.90
30628;DHT22;17394;50.890;4.724;2023-07-13T00:51:13;15.70;99.90
30628;DHT22;17394;50.890;4.724;2023-07-13T00:53:41;15.70;99.90
30628;DHT22;17394;50.890;4.724;2023-07-13T00:56:07;15.70;99.90
30628;DHT22;17394;50.890;4.724;2023-07-13T00:58:33;15.70;99.90
30628;DHT22;17394;50.890;4.724;2023-07-13T01:00:59;15.60;99.90
30628;DHT22;17394;50.890;4.724;2023-07-13T01:03:25;15.60;99.90
30628;DHT22;17394;50.890;4.724;2023-07-13T01:05:51;15.60;99.90
30628;DHT22;17394;50.890;4.724;2023-07-13T01:08:20;15.60;99.90
30628;DHT22;17394;50.890;4.724;2023-07-13T01:10:52;15.50;99.90
30628;DHT22;17394;50.890;4.724;2023-07-13T01:13:18;15.50;99.90
30628;DHT22;17394;50.890;4.724;2023-07-13T01:15:46;15.50;99.90
30628;DHT22;17394;50.890;4.724;2023-07-13T01:18:19;15.50;99.90
30628;DHT22;17394;50.890;4.724;2023-07-13T01:20:50;15.50;99.90
30628;DHT22;17394;50.890;4.724;2023-07-13T01:23:15;15.50;99.90
30628;DHT22;17394;50.890;4.724;2023-07-13T01:25:41;15.50;99.90
30628;DHT22;17394;50.890;4.724;2023-07-13T01:28:08;15.50;99.90
30628;DHT22;17394;50.890;4.724;2023-07-13T01:30:35;15.40;99.90
30628;DHT22;17394;50.890;4.724;2023-07-13T01:33:00;15.40;99.90
30628;DHT22;17394;50.890;4.724;2023-07-13T01:35:27;15.40;99.90
30628;DHT22;17394;50.890;4.724;2023-07-13T01:37:53;15.40;99.90
30628;DHT22;17394;50.890;4.724;2023-07-13T01:40:19;15.40;99.90
30628;DHT22;17394;50.890;4.724;2023-07-13T01:42:45;15.40;99.90
30628;DHT22;17394;50.890;4.724;2023-07-13T01:45:11;15.40;99.90
30628;DHT22;17394;50.890;4.724;2023-07-13T01:47:37;15.40;99.90
30628;DHT22;17394;50.890;4.724;2023-07-13T01:50:03;15.40;99.90
30628;DHT22;17394;50.890;4.724;2023-07-13T01:52:28;15.40;99.90
30628;DHT22;17394;50.890;4.724;2023-07-13T01:54:54;15.40;99.90
30628;DHT22;17394;50.890;4.724;2023-07-13T01:57:20;15.30;99.90
30628;DHT22;17394;50.890;4.724;2023-07-13T01:59:45;15.30;99.90
30628;DHT22;17394;50.890;4.724;2023-07-13T02:02:11;15.30;99.90
30628;DHT22;17394;50.890;4.724;2023-07-13T02:04:37;15.30;99.90
30628;DHT22;17394;50.890;4.724;2023-07-13T02:07:02;15.30;99.90
30628;DHT22;17394;50.890;4.724;2023-07-13T02:09:28;15.20;99.90
30628;DHT22;17394;50.890;4.724;2023-07-13T02:11:54;15.20;99.90
30628;DHT22;17394;50.890;4.724;2023-07-13T02:14:19;15.20;99.90
30628;DHT22;17394;50.890;4.724;2023-07-13T02:16:45;15.20;99.90
30628;DHT22;17394;50.890;4.724;2023-07-13T02:19:11;15.10;99.90
30628;DHT22;17394;50.890;4.724;2023-07-13T02:21:37;15.10;99.90
30628;DHT22;17394;50.890;4.724;2023-07-13T02:24:03;15.10;99.90
30628;DHT22;17394;50.890;4.724;2023-07-13T02:26:29;15.10;99.90
30628;DHT22;17394;50.890;4.724;2023-07-13T02:28:55;15.10;99.90
30628;DHT22;17394;50.890;4.724;2023-07-13T02:31:20;15.10;99.90
30628;DHT22;17394;50.890;4.724;2023-07-13T02:33:46;15.10;99.90
30628;DHT22;17394;50.890;4.724;2023-07-13T02:36:12;15.10;99.90
30628;DHT22;17394;50.890;4.724;2023-07-13T02:38:39;15.00;99.90
30628;DHT22;17394;50.890;4.724;2023-07-13T02:41:06;15.10;99.90
30628;DHT22;17394;50.890;4.724;2023-07-13T02:43:32;15.00;99.90
30628;DHT22;17394;50.890;4.724;2023-07-13T02:45:59;15.00;99.90
30628;DHT22;17394;50.890;4.724;2023-07-13T02:48:29;15.00;99.90
30628;DHT22;17394;50.890;4.724;2023-07-13T02:50:55;15.00;99.90
30628;DHT22;17394;50.890;4.724;2023-07-13T02:53:21;15.00;99.90
30628;DHT22;17394;50.890;4.724;2023-07-13T02:55:46;15.00;99.90
30628;DHT22;17394;50.890;4.724;2023-07-13T02:58:13;15.00;99.90
30628;DHT22;17394;50.890;4.724;2023-07-13T03:00:45;15.00;99.90
30628;DHT22;17394;50.890;4.724;2023-07-13T03:03:12;15.00;99.90
30628;DHT22;17394;50.890;4.724;2023-07-13T03:05:40;15.00;99.90
30628;DHT22;17394;50.890;4.724;2023-07-13T03:08:07;15.00;99.90
30628;DHT22;17394;50.890;4.724;2023-07-13T03:10:33;15.00;99.90
30628;DHT22;17394;50.890;4.724;2023-07-13T03:12:59;15.00;99.90
30628;DHT22;17394;50.890;4.724;2023-07-13T03:15:25;15.00;99.90
30628;DHT22;17394;50.890;4.724;2023-07-13T03:17:50;15.00;99.90
30628;DHT22;17394;50.890;4.724;2023-07-13T03:20:16;15.00;99.90
30628;DHT22;17394;50.890;4.724;2023-07-13T03:22:42;15.00;99.90
30628;DHT22;17394;50.890;4.724;2023-07-13T03:25:07;15.00;99.90
30628;DHT22;17394;50.890;4.724;2023-07-13T03:27:33;15.00;99.90
30628;DHT22;17394;50.890;4.724;2023-07-13T03:29:59;15.00;99.90
30628;DHT22;17394;50.890;4.724;2023-07-13T03:32:25;15.00;99.90
30628;DHT22;17394;50.890;4.724;2023-07-13T03:34:50;15.00;99.90
30628;DHT22;17394;50.890;4.724;2023-07-13T03:37:16;15.00;99.90
30628;DHT22;17394;50.890;4.724;2023-07-13T03:39:42;15.00;99.90
30628;DHT22;17394;50.890;4.724;2023-07-13T03:42:08;15.00;99.90
30628;DHT22;17394;50.890;4.724;2023-07-13T03:44:35;15.00;99.90
30628;DHT22;17394;50.890;4.724;2023-07-13T03:47:00;15.00;99.90
30628;DHT22;17394;50.890;4.724;2023-07-13T03:49:26;15.00;99.90
30628;DHT22;17394;50.890;4.724;2023-07-13T03:51:52;15.00;99.90
30628;DHT22;17394;50.890;4.724;2023-07-13T03:54:17;15.00;99.90
30628;DHT22;17394;50.890;4.724;2023-07-13T03:56:43;15.00;99.90
30628;DHT22;17394;50.890;4.724;2023-07-13T03:59:09;15.00;99.90
30628;DHT22;17394;50.890;4.724;2023-07-13T04:01:35;15.00;99.90
30628;DHT22;17394;50.890;4.724;2023-07-13T04:04:00;15.00;99.90
30628;DHT22;17394;50.890;4.724;2023-07-13T04:06:27;15.00;99.90
30628;DHT22;17394;50.890;4.724;2023-07-13T04:08:54;15.00;99.90
30628;DHT22;17394;50.890;4.724;2023-07-13T04:11:21;15.10;99.90
30628;DHT22;17394;50.890;4.724;2023-07-13T04:13:47;15.10;99.90
30628;DHT22;17394;50.890;4.724;2023-07-13T04:16:13;15.10;99.90
30628;DHT22;17394;50.890;4.724;2023-07-13T04:18:41;15.10;99.90
30628;DHT22;17394;50.890;4.724;2023-07-13T04:21:07;15.20;99.90
30628;DHT22;17394;50.890;4.724;2023-07-13T04:23:34;15.10;99.90
30628;DHT22;17394;50.890;4.724;2023-07-13T04:26:00;15.10;99.90
30628;DHT22;17394;50.890;4.724;2023-07-13T04:28:26;15.10;99.90
30628;DHT22;17394;50.890;4.724;2023-07-13T04:30:53;15.10;99.90
30628;DHT22;17394;50.890;4.724;2023-07-13T04:33:19;15.20;99.90
30628;DHT22;17394;50.890;4.724;2023-07-13T04:35:51;15.10;99.90
30628;DHT22;17394;50.890;4.724;2023-07-13T04:38:26;15.20;99.90
30628;DHT22;17394;50.890;4.724;2023-07-13T04:40:54;15.20;99.90
30628;DHT22;17394;50.890;4.724;2023-07-13T04:43:20;15.20;99.90
30628;DHT22;17394;50.890;4.724;2023-07-13T04:45:46;15.20;99.90
30628;DHT22;17394;50.890;4.724;2023-07-13T04:48:12;15.30;99.90
30628;DHT22;17394;50.890;4.724;2023-07-13T04:50:38;15.30;99.90
30628;DHT22;17394;50.890;4.724;2023-07-13T04:53:04;15.30;99.90
30628;DHT22;17394;50.890;4.724;2023-07-13T04:55:30;15.30;99.90
30628;DHT22;17394;50.890;4.724;2023-07-13T04:57:57;15.30;99.90
30628;DHT22;17394;50.890;4.724;2023-07-13T05:00:26;15.40;99.90
30628;DHT22;17394;50.890;4.724;2023-07-13T05:02:53;15.40;99.90
30628;DHT22;17394;50.890;4.724;2023-07-13T05:05:21;15.40;99.90
30628;DHT22;17394;50.890;4.724;2023-07-13T05:07:48;15.50;99.90
30628;DHT22;17394;50.890;4.724;2023-07-13T05:10:13;15.50;99.90
30628;DHT22;17394;50.890;4.724;2023-07-13T05:12:39;15.60;99.90
30628;DHT22;17394;50.890;4.724;2023-07-13T05:15:06;15.70;99.90
30628;DHT22;17394;50.890;4.724;2023-07-13T05:17:32;15.70;99.90
30628;DHT22;17394;50.890;4.724;2023-07-13T05:19:58;15.80;99.90
30628;DHT22;17394;50.890;4.724;2023-07-13T05:22:25;15.80;99.90
30628;DHT22;17394;50.890;4.724;2023-07-13T05:24:52;15.90;99.90
30628;DHT22;17394;50.890;4.724;2023-07-13T05:27:20;15.90;99.90
30628;DHT22;17394;50.890;4.724;2023-07-13T05:29:45;16.00;99.90
30628;DHT22;17394;50.890;4.724;2023-07-13T05:32:13;16.00;99.90
30628;DHT22;17394;50.890;4.724;2023-07-13T05:34:40;16.10;99.90
30628;DHT22;17394;50.890;4.724;2023-07-13T05:37:07;16.10;99.90
30628;DHT22;17394;50.890;4.724;2023-07-13T05:39:33;16.20;99.90
30628;DHT22;17394;50.890;4.724;2023-07-13T05:41:59;16.30;99.90
30628;DHT22;17394;50.890;4.724;2023-07-13T05:44:25;16.40;99.90
30628;DHT22;17394;50.890;4.724;2023-07-13T05:46:52;16.40;99.90
30628;DHT22;17394;50.890;4.724;2023-07-13T05:49:22;16.50;99.90
30628;DHT22;17394;50.890;4.724;2023-07-13T05:51:49;16.50;99.90
30628;DHT22;17394;50.890;4.724;2023-07-13T05:54:16;16.70;99.90
30628;DHT22;17394;50.890;4.724;2023-07-13T05:56:42;16.60;99.90
30628;DHT22;17394;50.890;4.724;2023-07-13T05:59:08;16.70;99.90
30628;DHT22;17394;50.890;4.724;2023-07-13T06:01:36;16.70;99.90
30628;DHT22;17394;50.890;4.724;2023-07-13T06:04:01;16.70;99.90
30628;DHT22;17394;50.890;4.724;2023-07-13T06:06:27;16.70;99.90
30628;DHT22;17394;50.890;4.724;2023-07-13T06:08:53;16.80;99.90
30628;DHT22;17394;50.890;4.724;2023-07-13T06:11:21;16.80;99.90
30628;DHT22;17394;50.890;4.724;2023-07-13T06:13:47;16.80;99.90
30628;DHT22;17394;50.890;4.724;2023-07-13T06:16:13;16.80;99.90
30628;DHT22;17394;50.890;4.724;2023-07-13T06:18:40;16.90;99.90
30628;DHT22;17394;50.890;4.724;2023-07-13T06:21:06;16.90;99.90
30628;DHT22;17394;50.890;4.724;2023-07-13T06:23:32;16.90;99.90
30628;DHT22;17394;50.890;4.724;2023-07-13T06:25:58;16.90;99.90
30628;DHT22;17394;50.890;4.724;2023-07-13T06:28:24;17.00;99.90
30628;DHT22;17394;50.890;4.724;2023-07-13T06:30:50;17.00;99.90
30628;DHT22;17394;50.890;4.724;2023-07-13T06:33:15;17.00;99.90
30628;DHT22;17394;50.890;4.724;2023-07-13T06:35:42;17.10;99.90
30628;DHT22;17394;50.890;4.724;2023-07-13T06:38:08;17.20;99.90
30628;DHT22;17394;50.890;4.724;2023-07-13T06:40:34;17.30;99.90
30628;DHT22;17394;50.890;4.724;2023-07-13T06:42:59;17.30;99.90
30628;DHT22;17394;50.890;4.724;2023-07-13T06:45:25;17.40;99.90
30628;DHT22;17394;50.890;4.724;2023-07-13T06:47:51;17.50;99.90
30628;DHT22;17394;50.890;4.724;2023-07-13T06:50:16;17.50;99.90
30628;DHT22;17394;50.890;4.724;2023-07-13T06:52:42;17.60;99.90
30628;DHT22;17394;50.890;4.724;2023-07-13T06:55:08;17.70;99.90
30628;DHT22;17394;50.890;4.724;2023-07-13T06:57:34;17.70;99.90
30628;DHT22;17394;50.890;4.724;2023-07-13T06:59:59;17.80;99.90
30628;DHT22;17394;50.890;4.724;2023-07-13T07:02:25;17.90;99.90
30628;DHT22;17394;50.890;4.724;2023-07-13T07:04:50;17.90;99.90
30628;DHT22;17394;50.890;4.724;2023-07-13T07:07:16;18.00;99.90
30628;DHT22;17394;50.890;4.724;2023-07-13T07:09:42;18.10;99.90
30628;DHT22;17394;50.890;4.724;2023-07-13T07:12:08;18.20;99.90
30628;DHT22;17394;50.890;4.724;2023-07-13T07:14:34;18.30;99.90
30628;DHT22;17394;50.890;4.724;2023-07-13T07:17:00;18.30;99.90
30628;DHT22;17394;50.890;4.724;2023-07-13T07:19:26;18.40;99.90
30628;DHT22;17394;50.890;4.724;2023-07-13T07:21:51;18.40;99.90
30628;DHT22;17394;50.890;4.724;2023-07-13T07:24:17;18.60;99.90
30628;DHT22;17394;50.890;4.724;2023-07-13T07:26:43;18.80;99.90
30628;DHT22;17394;50.890;4.724;2023-07-13T07:29:09;18.80;99.90
30628;DHT22;17394;50.890;4.724;2023-07-13T07:31:34;18.80;99.90
30628;DHT22;17394;50.890;4.724;2023-07-13T07:34:02;18.80;99.90
30628;DHT22;17394;50.890;4.724;2023-07-13T07:36:28;18.80;99.90
30628;DHT22;17394;50.890;4.724;2023-07-13T07:38:54;18.80;99.90
30628;DHT22;17394;50.890;4.724;2023-07-13T07:41:19;18.90;99.90
30628;DHT22;17394;50.890;4.724;2023-07-13T07:43:45;19.10;99.90
30628;DHT22;17394;50.890;4.724;2023-07-13T07:46:11;19.10;99.90
30628;DHT22;17394;50.890;4.724;2023-07-13T07:48:37;19.20;99.90
30628;DHT22;17394;50.890;4.724;2023-07-13T07:51:03;19.30;99.90
30628;DHT22;17394;50.890;4.724;2023-07-13T07:53:29;19.30;99.90
30628;DHT22;17394;50.890;4.724;2023-07-13T07:55:54;19.20;99.90
30628;DHT22;17394;50.890;4.724;2023-07-13T07:58:20;19.20;99.90
30628;DHT22;17394;50.890;4.724;2023-07-13T08:00:46;19.10;99.90
30628;DHT22;17394;50.890;4.724;2023-07-13T08:03:12;19.20;99.90
30628;DHT22;17394;50.890;4.724;2023-07-13T08:05:38;19.30;99.90
30628;DHT22;17394;50.890;4.724;2023-07-13T08:08:03;19.40;99.90
30628;DHT22;17394;50.890;4.724;2023-07-13T08:10:29;19.60;99.90
30628;DHT22;17394;50.890;4.724;2023-07-13T08:12:54;19.60;99.90
30628;DHT22;17394;50.890;4.724;2023-07-13T08:15:20;19.60;99.90
30628;DHT22;17394;50.890;4.724;2023-07-13T08:17:47;19.50;99.90
30628;DHT22;17394;50.890;4.724;2023-07-13T08:20:13;19.60;99.90
30628;DHT22;17394;50.890;4.724;2023-07-13T08:22:39;19.60;99.90
30628;DHT22;17394;50.890;4.724;2023-07-13T08:25:05;19.60;99.90
30628;DHT22;17394;50.890;4.724;2023-07-13T08:27:31;19.50;99.90
30628;DHT22;17394;50.890;4.724;2023-07-13T08:29:56;19.50;99.90
30628;DHT22;17394;50.890;4.724;2023-07-13T08:32:22;19.60;99.90
30628;DHT22;17394;50.890;4.724;2023-07-13T08:34:49;19.90;99.90
30628;DHT22;17394;50.890;4.724;2023-07-13T08:37:15;20.20;99.90
30628;DHT22;17394;50.890;4.724;2023-07-13T08:39:40;20.50;99.90
30628;DHT22;17394;50.890;4.724;2023-07-13T08:47:10;20.80;99.90
30628;DHT22;17394;50.890;4.724;2023-07-13T08:49:37;20.80;99.90
30628;DHT22;17394;50.890;4.724;2023-07-13T08:52:05;20.70;99.90
30628;DHT22;17394;50.890;4.724;2023-07-13T08:54:38;20.80;99.90
30628;DHT22;17394;50.890;4.724;2023-07-13T08:57:24;20.70;99.90
30628;DHT22;17394;50.890;4.724;2023-07-13T08:59:55;20.70;99.90
30628;DHT22;17394;50.890;4.724;2023-07-13T09:07:39;21.70;99.90
30628;DHT22;17394;50.890;4.724;2023-07-13T09:10:28;21.80;99.90
30628;DHT22;17394;50.890;4.724;2023-07-13T09:13:00;21.80;99.90
30628;DHT22;17394;50.890;4.724;2023-07-13T09:17:55;21.20;99.90
30628;DHT22;17394;50.890;4.724;2023-07-13T09:20:27;20.90;99.90
30628;DHT22;17394;50.890;4.724;2023-07-13T09:22:54;20.70;99.90
30628;DHT22;17394;50.890;4.724;2023-07-13T09:27:46;21.00;99.90
30628;DHT22;17394;50.890;4.724;2023-07-13T09:32:47;21.40;99.90
30628;DHT22;17394;50.890;4.724;2023-07-13T09:35:16;21.60;99.90
30628;DHT22;17394;50.890;4.724;2023-07-13T09:37:43;21.80;99.90
30628;DHT22;17394;50.890;4.724;2023-07-13T09:40:35;22.10;99.90
30628;DHT22;17394;50.890;4.724;2023-07-13T09:42:56;22.30;99.90
30628;DHT22;17394;50.890;4.724;2023-07-13T09:45:27;22.30;99.90
30628;DHT22;17394;50.890;4.724;2023-07-13T09:48:03;22.40;99.90
30628;DHT22;17394;50.890;4.724;2023-07-13T09:50:29;22.30;99.90
30628;DHT22;17394;50.890;4.724;2023-07-13T09:52:55;22.00;99.90
30628;DHT22;17394;50.890;4.724;2023-07-13T09:55:25;21.90;99.90
30628;DHT22;17394;50.890;4.724;2023-07-13T09:57:51;21.90;99.90
30628;DHT22;17394;50.890;4.724;2023-07-13T10:00:20;22.00;99.90
30628;DHT22;17394;50.890;4.724;2023-07-13T10:02:46;22.30;99.90
30628;DHT22;17394;50.890;4.724;2023-07-13T10:05:23;22.20;99.90
30628;DHT22;17394;50.890;4.724;2023-07-13T10:07:50;22.20;99.90
30628;DHT22;17394;50.890;4.724;2023-07-13T10:10:18;22.20;99.90
30628;DHT22;17394;50.890;4.724;2023-07-13T10:12:46;22.00;99.90
30628;DHT22;17394;50.890;4.724;2023-07-13T10:15:14;21.90;99.90
30628;DHT22;17394;50.890;4.724;2023-07-13T10:17:40;21.90;99.90
30628;DHT22;17394;50.890;4.724;2023-07-13T10:20:06;21.90;99.90
30628;DHT22;17394;50.890;4.724;2023-07-13T10:25:37;21.70;99.90
30628;DHT22;17394;50.890;4.724;2023-07-13T10:28:06;21.90;99.90
30628;DHT22;17394;50.890;4.724;2023-07-13T10:30:38;22.10;99.90
30628;DHT22;17394;50.890;4.724;2023-07-13T10:33:08;22.40;99.90
30628;DHT22;17394;50.890;4.724;2023-07-13T10:35:36;22.50;99.90
30628;DHT22;17394;50.890;4.724;2023-07-13T10:38:06;22.60;99.90
30628;DHT22;17394;50.890;4.724;2023-07-13T10:43:13;22.60;99.90
30628;DHT22;17394;50.890;4.724;2023-07-13T10:45:40;22.60;99.90
30628;DHT22;17394;50.890;4.724;2023-07-13T10:48:06;22.60;99.90
30628;DHT22;17394;50.890;4.724;2023-07-13T10:50:35;22.70;99.90
30628;DHT22;17394;50.890;4.724;2023-07-13T10:54:10;22.90;99.90
30628;DHT22;17394;50.890;4.724;2023-07-13T10:58:28;23.20;99.90
30628;DHT22;17394;50.890;4.724;2023-07-13T11:03:55;23.30;99.90
30628;DHT22;17394;50.890;4.724;2023-07-13T11:21:32;23.10;99.90
30628;DHT22;17394;50.890;4.724;2023-07-13T11:26:42;22.90;99.90
30628;DHT22;17394;50.890;4.724;2023-07-13T11:29:09;22.80;99.90
30628;DHT22;17394;50.890;4.724;2023-07-13T11:31:34;22.70;99.90
30628;DHT22;17394;50.890;4.724;2023-07-13T11:34:01;22.50;99.90
30628;DHT22;17394;50.890;4.724;2023-07-13T11:36:31;22.40;99.90
30628;DHT22;17394;50.890;4.724;2023-07-13T11:39:03;22.40;99.90
30628;DHT22;17394;50.890;4.724;2023-07-13T11:41:35;22.40;99.90
30628;DHT22;17394;50.890;4.724;2023-07-13T11:44:11;22.30;99.90
30628;DHT22;17394;50.890;4.724;2023-07-13T11:46:36;22.40;99.90
30628;DHT22;17394;50.890;4.724;2023-07-13T11:49:04;22.50;99.90
30628;DHT22;17394;50.890;4.724;2023-07-13T11:51:32;22.70;99.90
30628;DHT22;17394;50.890;4.724;2023-07-13T11:54:22;22.90;99.90
30628;DHT22;17394;50.890;4.724;2023-07-13T11:56:45;23.20;99.90
30628;DHT22;17394;50.890;4.724;2023-07-13T11:59:12;23.10;99.90
30628;DHT22;17394;50.890;4.724;2023-07-13T12:01:43;23.00;99.90
30628;DHT22;17394;50.890;4.724;2023-07-13T12:04:19;22.90;99.90
30628;DHT22;17394;50.890;4.724;2023-07-13T12:06:47;22.90;99.90
30628;DHT22;17394;50.890;4.724;2023-07-13T12:09:20;23.10;99.90
30628;DHT22;17394;50.890;4.724;2023-07-13T12:11:50;23.10;99.90
30628;DHT22;17394;50.890;4.724;2023-07-13T12:14:17;23.00;99.90
30628;DHT22;17394;50.890;4.724;2023-07-13T12:16:43;22.80;99.90
30628;DHT22;17394;50.890;4.724;2023-07-13T12:19:20;22.60;99.90
30628;DHT22;17394;50.890;4.724;2023-07-13T12:21:47;22.50;99.90
30628;DHT22;17394;50.890;4.724;2023-07-13T12:24:13;22.40;99.90
30628;DHT22;17394;50.890;4.724;2023-07-13T12:26:39;22.30;99.90
30628;DHT22;17394;50.890;4.724;2023-07-13T12:29:07;22.40;99.90
30628;DHT22;17394;50.890;4.724;2023-07-13T12:33:59;22.40;99.90
30628;DHT22;17394;50.890;4.724;2023-07-13T12:36:25;22.40;99.90
30628;DHT22;17394;50.890;4.724;2023-07-13T12:38:56;22.30;99.90
30628;DHT22;17394;50.890;4.724;2023-07-13T12:41:22;22.20;99.90
30628;DHT22;17394;50.890;4.724;2023-07-13T12:43:49;22.10;99.90
30628;DHT22;17394;50.890;4.724;2023-07-13T12:46:17;22.10;99.90
30628;DHT22;17394;50.890;4.724;2023-07-13T12:48:43;22.00;99.90
30628;DHT22;17394;50.890;4.724;2023-07-13T12:51:14;22.10;99.90
30628;DHT22;17394;50.890;4.724;2023-07-13T12:53:43;22.00;99.90
30628;DHT22;17394;50.890;4.724;2023-07-13T12:56:18;21.70;99.90
30628;DHT22;17394;50.890;4.724;2023-07-13T12:58:46;21.20;99.90
30628;DHT22;17394;50.890;4.724;2023-07-13T13:01:15;20.80;99.90
30628;DHT22;17394;50.890;4.724;2023-07-13T13:03:46;20.60;99.90
30628;DHT22;17394;50.890;4.724;2023-07-13T13:08:45;20.30;99.90
30628;DHT22;17394;50.890;4.724;2023-07-13T13:11:11;20.30;99.90
30628;DHT22;17394;50.890;4.724;2023-07-13T13:13:36;20.10;99.90
30628;DHT22;17394;50.890;4.724;2023-07-13T13:16:08;20.00;99.90
30628;DHT22;17394;50.890;4.724;2023-07-13T13:18:34;19.80;99.90
30628;DHT22;17394;50.890;4.724;2023-07-13T13:21:01;19.50;99.90
30628;DHT22;17394;50.890;4.724;2023-07-13T13:23:28;19.20;99.90
30628;DHT22;17394;50.890;4.724;2023-07-13T13:25:54;19.10;99.90
30628;DHT22;17394;50.890;4.724;2023-07-13T13:28:20;18.90;99.90
30628;DHT22;17394;50.890;4.724;2023-07-13T13:30:46;18.90;99.90
30628;DHT22;17394;50.890;4.724;2023-07-13T13:33:15;19.00;99.90
30628;DHT22;17394;50.890;4.724;2023-07-13T13:35:43;19.00;99.90
30628;DHT22;17394;50.890;4.724;2023-07-13T13:38:12;18.90;99.90
30628;DHT22;17394;50.890;4.724;2023-07-13T13:40:40;18.90;99.90
30628;DHT22;17394;50.890;4.724;2023-07-13T13:43:40;18.90;99.90
30628;DHT22;17394;50.890;4.724;2023-07-13T13:45:59;18.90;99.90
30628;DHT22;17394;50.890;4.724;2023-07-13T13:50:56;19.20;99.90
30628;DHT22;17394;50.890;4.724;2023-07-13T13:53:21;19.40;99.90
30628;DHT22;17394;50.890;4.724;2023-07-13T13:55:49;19.70;99.90
30628;DHT22;17394;50.890;4.724;2023-07-13T13:58:15;19.90;99.90
30628;DHT22;17394;50.890;4.724;2023-07-13T14:00:40;20.10;99.90
30628;DHT22;17394;50.890;4.724;2023-07-13T14:03:08;20.20;99.90
30628;DHT22;17394;50.890;4.724;2023-07-13T14:05:39;20.30;99.90
30628;DHT22;17394;50.890;4.724;2023-07-13T14:08:09;20.40;99.90
30628;DHT22;17394;50.890;4.724;2023-07-13T14:10:38;20.40;99.90
30628;DHT22;17394;50.890;4.724;2023-07-13T14:13:03;20.50;99.90
30628;DHT22;17394;50.890;4.724;2023-07-13T14:15:31;20.70;99.90
30628;DHT22;17394;50.890;4.724;2023-07-13T14:17:57;20.80;99.90
30628;DHT22;17394;50.890;4.724;2023-07-13T14:20:24;21.00;99.90
30628;DHT22;17394;50.890;4.724;2023-07-13T14:22:53;21.20;99.90
30628;DHT22;17394;50.890;4.724;2023-07-13T14:25:20;21.30;99.90
30628;DHT22;17394;50.890;4.724;2023-07-13T14:27:49;21.40;99.90
30628;DHT22;17394;50.890;4.724;2023-07-13T14:30:16;21.50;99.90
30628;DHT22;17394;50.890;4.724;2023-07-13T14:32:42;21.70;99.90
30628;DHT22;17394;50.890;4.724;2023-07-13T14:35:11;21.80;99.90
30628;DHT22;17394;50.890;4.724;2023-07-13T14:37:38;22.10;99.90
30628;DHT22;17394;50.890;4.724;2023-07-13T14:40:25;22.30;99.90
30628;DHT22;17394;50.890;4.724;2023-07-13T14:42:52;22.40;99.90
30628;DHT22;17394;50.890;4.724;2023-07-13T14:45:18;22.40;99.90
30628;DHT22;17394;50.890;4.724;2023-07-13T14:47:45;22.50;99.90
30628;DHT22;17394;50.890;4.724;2023-07-13T14:50:15;22.50;99.90
30628;DHT22;17394;50.890;4.724;2023-07-13T14:52:43;22.60;99.90
30628;DHT22;17394;50.890;4.724;2023-07-13T14:55:12;22.70;99.90
30628;DHT22;17394;50.890;4.724;2023-07-13T14:57:38;22.90;99.90
30628;DHT22;17394;50.890;4.724;2023-07-13T15:00:08;23.20;99.90
30628;DHT22;17394;50.890;4.724;2023-07-13T15:02:38;23.20;99.90
30628;DHT22;17394;50.890;4.724;2023-07-13T15:05:08;23.20;99.90
30628;DHT22;17394;50.890;4.724;2023-07-13T15:07:38;23.10;99.90
30628;DHT22;17394;50.890;4.724;2023-07-13T15:12:39;22.70;99.90
30628;DHT22;17394;50.890;4.724;2023-07-13T15:15:06;22.70;99.90
30628;DHT22;17394;50.890;4.724;2023-07-13T15:17:39;22.50;99.90
30628;DHT22;17394;50.890;4.724;2023-07-13T15:20:27;22.40;99.90
30628;DHT22;17394;50.890;4.724;2023-07-13T15:22:51;22.50;99.90
30628;DHT22;17394;50.890;4.724;2023-07-13T15:25:19;22.60;99.90
30628;DHT22;17394;50.890;4.724;2023-07-13T15:27:45;22.80;99.90
30628;DHT22;17394;50.890;4.724;2023-07-13T15:30:12;23.10;99.90
30628;DHT22;17394;50.890;4.724;2023-07-13T15:32:41;23.30;99.90
30628;DHT22;17394;50.890;4.724;2023-07-13T15:35:13;23.30;99.90
30628;DHT22;17394;50.890;4.724;2023-07-13T15:37:40;23.40;99.90
30628;DHT22;17394;50.890;4.724;2023-07-13T15:40:06;23.50;99.90
30628;DHT22;17394;50.890;4.724;2023-07-13T15:42:32;23.70;99.90
30628;DHT22;17394;50.890;4.724;2023-07-13T15:44:58;23.70;99.90
30628;DHT22;17394;50.890;4.724;2023-07-13T15:47:26;23.60;99.90
30628;DHT22;17394;50.890;4.724;2023-07-13T15:49:53;23.50;99.90
30628;DHT22;17394;50.890;4.724;2023-07-13T15:52:23;23.30;99.90
30628;DHT22;17394;50.890;4.724;2023-07-13T15:54:50;23.30;99.90
30628;DHT22;17394;50.890;4.724;2023-07-13T15:57:16;23.40;99.90
30628;DHT22;17394;50.890;4.724;2023-07-13T15:59:42;23.70;99.90
30628;DHT22;17394;50.890;4.724;2023-07-13T16:02:12;23.90;99.90
30628;DHT22;17394;50.890;4.724;2023-07-13T16:04:38;24.10;99.90
30628;DHT22;17394;50.890;4.724;2023-07-13T16:07:05;24.20;99.90
30628;DHT22;17394;50.890;4.724;2023-07-13T16:09:32;24.40;99.90
30628;DHT22;17394;50.890;4.724;2023-07-13T16:11:58;24.50;99.90
30628;DHT22;17394;50.890;4.724;2023-07-13T16:14:24;24.50;99.90
30628;DHT22;17394;50.890;4.724;2023-07-13T16:16:50;24.50;99.90
30628;DHT22;17394;50.890;4.724;2023-07-13T16:19:20;24.60;99.90
30628;DHT22;17394;50.890;4.724;2023-07-13T16:21:54;24.60;99.90
30628;DHT22;17394;50.890;4.724;2023-07-13T16:24:23;24.60;99.90
30628;DHT22;17394;50.890;4.724;2023-07-13T16:26:50;24.60;99.90
30628;DHT22;17394;50.890;4.724;2023-07-13T16:29:20;24.50;99.90